Boulder Hill, Illinois
Current Conditions -  °F | °C
As of 12:52 AM on Friday 19 Dec 2014 (Local Time) from KARR Reporting Station
Overcast Overcast  
Wind Chill: 18°   Ceiling: 2900
Heat Index: 26°   Visibility: 9mi
Dew Point: 19°   Wind: 7mph
Humidity: 75%   Direction: 300°WNW
Pressure: 30.27"   Gusts: NA
Location:  41.7195°N, 88.3183°W
Report Text: KARR 190652Z AUTO 30006KT 9SM OVC029 M03/M07 A3027 RMK AO2 SLP261 T10331072
Loading
Personal Weather Stations






























Interactive Weather Map New forecast layout! Learn more

10-Day Weather Forecast

Advertisements
Track Severe Weather on mobile